createdAt,value
2023-02-11T00:29:40.720Z,48
2023-02-11T00:59:40.663Z,24
2023-02-11T01:29:41.146Z,26
2023-02-11T01:59:40.535Z,10
2023-02-11T02:29:40.830Z,20
2023-02-11T02:59:41.031Z,22
2023-02-11T03:29:41.008Z,14
2023-02-11T03:59:40.561Z,10
2023-02-11T04:29:40.954Z,24
2023-02-11T04:59:40.659Z,22
2023-02-11T05:29:40.711Z,18
2023-02-11T05:59:40.781Z,18
2023-02-11T06:29:40.947Z,10
2023-02-11T06:59:40.837Z,8
2023-02-11T07:29:41.005Z,12
2023-02-11T07:59:40.468Z,22
2023-02-11T08:29:42.330Z,38
2023-02-11T08:59:41.297Z,60
2023-02-11T09:29:40.467Z,54
2023-02-11T09:59:41.070Z,56
2023-02-11T10:29:40.661Z,76
2023-02-11T10:59:40.563Z,116
2023-02-11T11:29:40.767Z,90
2023-02-11T11:59:40.690Z,96
2023-02-11T12:29:40.536Z,88
2023-02-11T12:59:40.761Z,92
2023-02-11T13:29:40.643Z,68
2023-02-11T13:59:40.341Z,80
2023-02-11T14:29:42.679Z,50
2023-02-11T14:59:40.421Z,70
2023-02-11T15:29:40.276Z,68
2023-02-11T15:59:40.613Z,56
2023-02-11T16:29:40.396Z,66
2023-02-11T16:59:40.078Z,54
2023-02-11T17:29:40.107Z,40
2023-02-11T18:29:39.850Z,70
2023-02-11T18:59:40.156Z,54
2023-02-11T19:29:39.975Z,88
2023-02-11T19:59:40.190Z,58
2023-02-11T20:29:40.061Z,82
2023-02-11T21:29:49.271Z,52
2023-02-11T22:29:39.944Z,70
2023-02-11T22:59:40.090Z,28
2023-02-11T23:29:40.031Z,40
2023-02-11T23:59:39.614Z,42
